Search for airport 
image banner adimage banner ad
image banner ad

SIBI - Tame Guarujá Heliport

Located in Guarujá, Brazil

ICAO - SIBI, IATA -

Data provided by Airmate  

General information

Coordinates: S10°50'17" W37°11'46"
Elevation is 170 feet MSL.
Magnetic variation is -23° East
View others Airports in Sergipe

Operational data

Open for public use
Current time UTC:
Current local time:
Weather at : SBAR - Santa Maria ( 21 km )
METAR: SBAR 281300Z 06012KT 9999 SCT018 29/23 Q1011
TAF: TAF SBAR 280900Z 2812/2912 04007KT 9999 SCT017 TX30/2816Z TN26/2908Z BECMG 2812/2814 09017KT BECMG 2822/2824 09007KT BECMG 2902/2904 03005KT BECMG 2911/2912 09010KT RMK PHQ
View NOTAMs / SUP AIP / TFR affecting this airport [VIEW]
Communications frequencies: [VIEW]

Runways:

RWY identifierQFULength (ft)Width (ft)SurfaceLDA (ft)
01141059DIRT
19141059DIRT

Airport contact information

Address: Guarujá Brazil

Satellite view of SIBI